createdAt,value
2023-07-18T00:04:31.648Z,39.28
2023-07-18T00:09:33.590Z,39.41
2023-07-18T00:14:35.452Z,39.89
2023-07-18T00:19:38.790Z,39.79
2023-07-18T00:24:40.631Z,40.22
2023-07-18T00:29:42.479Z,39.82
2023-07-18T00:34:45.504Z,39.87
2023-07-18T00:39:47.502Z,40.48
2023-07-18T00:44:50.936Z,40.43
2023-07-18T00:49:52.952Z,40.09
2023-07-18T00:54:55.305Z,39.58
2023-07-18T00:59:57.451Z,39.25
2023-07-18T01:04:59.289Z,39.00
2023-07-18T01:10:25.567Z,39.35
2023-07-18T01:15:31.044Z,39.26
2023-07-18T01:20:34.500Z,39.24
2023-07-18T01:25:38.624Z,39.29
2023-07-18T01:30:40.496Z,39.33
2023-07-18T01:35:42.369Z,39.45
2023-07-18T01:40:44.302Z,40.10
2023-07-18T01:45:46.150Z,40.15
2023-07-18T01:50:47.987Z,40.14
2023-07-18T01:55:51.003Z,40.54
2023-07-18T02:00:52.878Z,40.52
2023-07-18T02:05:54.753Z,40.55
2023-07-18T02:10:59.080Z,40.27
2023-07-18T02:16:00.935Z,40.20
2023-07-18T02:21:03.865Z,40.35
2023-07-18T02:26:05.724Z,40.27
2023-07-18T02:31:08.436Z,40.13
2023-07-18T02:36:10.712Z,40.38
2023-07-18T02:41:12.542Z,40.29
2023-07-18T02:46:14.947Z,40.22
2023-07-18T02:51:17.480Z,40.44
2023-07-18T02:56:19.644Z,40.77
2023-07-18T03:01:21.971Z,40.69
2023-07-18T03:06:25.081Z,40.58
2023-07-18T03:11:26.992Z,40.56
2023-07-18T03:16:29.401Z,40.73
2023-07-18T03:21:31.265Z,40.75
2023-07-18T03:26:33.076Z,41.05
2023-07-18T03:31:35.269Z,41.19
2023-07-18T03:36:38.842Z,41.47
2023-07-18T03:41:40.755Z,41.38
2023-07-18T03:46:42.710Z,41.16
2023-07-18T03:51:44.645Z,41.17
2023-07-18T03:56:46.564Z,40.84
2023-07-18T04:01:48.442Z,40.92
2023-07-18T04:06:50.306Z,40.88
2023-07-18T04:11:52.258Z,41.08
2023-07-18T04:16:54.112Z,41.02
2023-07-18T04:21:55.965Z,41.21
2023-07-18T04:26:57.888Z,41.13
2023-07-18T04:31:59.716Z,41.03
2023-07-18T04:37:01.744Z,41.07
2023-07-18T04:42:03.851Z,41.01
2023-07-18T04:47:06.085Z,40.70
2023-07-18T04:52:08.782Z,40.88
2023-07-18T04:57:10.617Z,41.13
2023-07-18T05:02:12.468Z,41.08
2023-07-18T05:07:14.735Z,41.19
2023-07-18T05:12:16.599Z,41.23
2023-07-18T05:17:18.578Z,41.09
2023-07-18T05:22:20.716Z,41.11
2023-07-18T05:27:23.177Z,40.86
2023-07-18T05:32:25.252Z,40.61
2023-07-18T05:37:29.940Z,40.68
2023-07-18T05:42:32.334Z,40.81
2023-07-18T05:47:35.315Z,40.70
2023-07-18T05:52:37.357Z,40.50
2023-07-18T05:57:39.512Z,40.47
2023-07-18T06:02:41.560Z,40.13
2023-07-18T06:07:43.465Z,39.89
2023-07-18T06:12:45.313Z,39.46
2023-07-18T06:17:47.308Z,39.21
2023-07-18T06:22:49.378Z,38.65
2023-07-18T06:27:51.225Z,38.57
2023-07-18T06:32:53.195Z,38.14
2023-07-18T06:37:55.153Z,37.78
2023-07-18T06:42:56.998Z,37.29
2023-07-18T06:47:58.849Z,36.99
2023-07-18T06:53:00.728Z,36.59
2023-07-18T06:58:02.651Z,36.09
2023-07-18T07:03:04.617Z,35.73
2023-07-18T07:08:10.176Z,35.59
2023-07-18T07:13:13.491Z,35.47
2023-07-18T07:18:15.356Z,35.15
2023-07-18T07:23:18.028Z,34.60
2023-07-18T07:28:20.632Z,34.62
2023-07-18T07:33:22.584Z,34.54
2023-07-18T07:38:24.665Z,34.25
2023-07-18T07:43:26.540Z,34.36
2023-07-18T07:48:28.385Z,33.65
2023-07-18T07:53:30.574Z,33.71
2023-07-18T07:58:32.492Z,33.77
2023-07-18T08:03:34.319Z,33.92
2023-07-18T08:08:36.622Z,33.53
2023-07-18T08:13:38.533Z,33.06
2023-07-18T08:18:40.452Z,32.79
2023-07-18T08:23:42.317Z,32.93
2023-07-18T08:28:44.300Z,32.62
2023-07-18T08:33:46.685Z,32.37
2023-07-18T08:38:51.371Z,32.19
2023-07-18T08:43:53.908Z,31.78
2023-07-18T08:48:56.395Z,31.49
2023-07-18T08:53:58.691Z,31.55
2023-07-18T08:59:02.373Z,31.01
2023-07-18T09:04:05.141Z,30.36
2023-07-18T09:09:15.721Z,30.19
2023-07-18T09:14:26.616Z,30.08
2023-07-18T09:19:49.932Z,30.02
2023-07-18T09:24:51.910Z,29.54
2023-07-18T09:29:53.809Z,29.08
2023-07-18T09:34:57.405Z,28.65
2023-07-18T09:40:00.460Z,28.71
2023-07-18T09:45:11.057Z,28.36
2023-07-18T09:50:15.178Z,28.21
2023-07-18T09:55:23.285Z,28.38
2023-07-18T10:00:26.471Z,28.02
2023-07-18T10:05:28.893Z,27.73
2023-07-18T10:10:30.714Z,27.73
2023-07-18T10:16:11.251Z,27.58
2023-07-18T10:21:16.177Z,27.35
2023-07-18T10:26:19.063Z,27.25
2023-07-18T10:31:31.607Z,27.14
2023-07-18T10:36:35.531Z,26.88
2023-07-18T10:41:37.997Z,26.38
2023-07-18T10:46:40.998Z,25.94
2023-07-18T10:51:43.143Z,25.35
2023-07-18T10:56:45.142Z,25.29
2023-07-18T11:01:47.675Z,24.92
2023-07-18T11:06:51.468Z,24.91
2023-07-18T11:11:53.303Z,24.89
2023-07-18T11:16:56.221Z,23.76
2023-07-18T11:21:58.740Z,23.78
2023-07-18T11:27:20.643Z,23.57
2023-07-18T11:32:42.153Z,23.64
2023-07-18T11:37:44.136Z,23.52
2023-07-18T11:42:48.830Z,23.16
2023-07-18T11:47:55.587Z,23.01
2023-07-18T11:52:59.404Z,23.03
2023-07-18T11:58:01.481Z,22.07
2023-07-18T12:03:04.043Z,22.43
2023-07-18T12:08:06.149Z,22.79
2023-07-18T12:13:07.981Z,22.63
2023-07-18T12:18:09.869Z,21.83
2023-07-18T12:23:11.792Z,21.96
2023-07-18T12:28:13.990Z,22.31
2023-07-18T12:33:16.909Z,22.13
2023-07-18T12:38:19.697Z,22.21
2023-07-18T12:43:21.512Z,21.95
2023-07-18T12:48:23.357Z,22.22
2023-07-18T12:53:25.179Z,22.19
2023-07-18T12:58:27.085Z,22.30
2023-07-18T13:03:30.907Z,22.12
2023-07-18T13:08:35.920Z,21.89
2023-07-18T13:13:37.767Z,21.85
2023-07-18T13:18:39.610Z,22.01
2023-07-18T13:23:41.614Z,22.16
2023-07-18T13:28:43.458Z,21.84
2023-07-18T13:33:45.354Z,22.32
2023-07-18T13:38:47.208Z,22.26
2023-07-18T13:43:49.055Z,22.55
2023-07-18T13:48:50.970Z,22.48
2023-07-18T13:53:52.905Z,22.08
2023-07-18T13:58:55.404Z,22.00
2023-07-18T14:03:57.358Z,22.37
2023-07-18T14:08:59.470Z,22.03
2023-07-18T14:14:01.464Z,22.06
2023-07-18T14:19:03.401Z,22.00
2023-07-18T14:24:05.507Z,22.43
2023-07-18T14:29:07.387Z,22.41
2023-07-18T14:34:09.275Z,22.21
2023-07-18T14:39:11.101Z,21.97
2023-07-18T14:44:14.571Z,21.98
2023-07-18T14:49:16.640Z,22.24
2023-07-18T14:54:18.670Z,22.08
2023-07-18T14:59:20.528Z,22.05
2023-07-18T15:04:22.361Z,21.99
2023-07-18T15:09:25.604Z,22.22
2023-07-18T15:14:27.448Z,22.05
2023-07-18T15:19:29.287Z,21.98
2023-07-18T15:24:31.114Z,22.18
2023-07-18T15:29:32.950Z,21.92
2023-07-18T15:34:34.967Z,21.85
2023-07-18T15:39:39.062Z,22.44
2023-07-18T15:44:40.883Z,22.26
2023-07-18T15:49:45.526Z,22.05
2023-07-18T15:54:47.379Z,22.14
2023-07-18T15:59:49.203Z,22.24
2023-07-18T16:04:51.051Z,22.08
2023-07-18T16:09:56.788Z,22.33
2023-07-18T16:15:00.128Z,22.37
2023-07-18T16:20:02.146Z,22.52
2023-07-18T16:25:08.942Z,22.48
2023-07-18T16:30:11.446Z,22.46
2023-07-18T16:35:13.328Z,22.31
2023-07-18T16:40:15.361Z,22.49
2023-07-18T16:45:17.258Z,22.32
2023-07-18T16:50:19.424Z,22.52
2023-07-18T16:55:21.271Z,22.56
2023-07-18T17:00:23.331Z,22.64
2023-07-18T17:05:25.486Z,22.63
2023-07-18T17:10:27.931Z,22.51
2023-07-18T17:15:29.879Z,22.48
2023-07-18T17:20:31.789Z,22.67
2023-07-18T17:25:34.199Z,22.70
2023-07-18T17:30:36.135Z,22.87
2023-07-18T17:35:38.777Z,22.49
2023-07-18T17:40:40.637Z,22.72
2023-07-18T17:45:42.523Z,22.61
2023-07-18T17:50:44.620Z,22.81
2023-07-18T17:55:46.508Z,22.55
2023-07-18T18:00:48.406Z,22.67
2023-07-18T18:05:51.688Z,22.71
2023-07-18T18:10:53.925Z,22.81
2023-07-18T18:16:07.443Z,22.84
2023-07-18T18:21:12.027Z,22.87
2023-07-18T18:26:13.939Z,22.61
2023-07-18T18:31:16.451Z,23.04
2023-07-18T18:36:24.021Z,23.13
2023-07-18T18:41:25.980Z,23.34
2023-07-18T18:46:27.888Z,23.05
2023-07-18T18:51:29.796Z,23.18
2023-07-18T18:56:31.700Z,23.03
2023-07-18T19:01:33.614Z,23.25
2023-07-18T19:06:35.490Z,23.20
2023-07-18T19:11:37.393Z,23.48
2023-07-18T19:16:40.949Z,23.71
2023-07-18T19:21:43.365Z,23.76
2023-07-18T19:26:45.186Z,23.80
2023-07-18T19:31:47.072Z,24.01
2023-07-18T19:36:49.333Z,24.16
2023-07-18T19:41:51.184Z,24.19
2023-07-18T19:46:53.108Z,24.41
2023-07-18T19:51:57.821Z,24.46
2023-07-18T19:56:59.836Z,24.27
2023-07-18T20:02:01.699Z,24.48
2023-07-18T20:07:03.779Z,24.68
2023-07-18T20:12:06.000Z,24.64
2023-07-18T20:17:07.883Z,24.83
2023-07-18T20:22:09.721Z,25.07
2023-07-18T20:27:11.694Z,25.17
2023-07-18T20:32:13.689Z,25.57
2023-07-18T20:37:15.819Z,25.59
2023-07-18T20:42:18.152Z,25.82
2023-07-18T20:47:20.323Z,26.22
2023-07-18T20:52:22.768Z,26.72
2023-07-18T20:57:24.800Z,26.92
2023-07-18T21:02:26.953Z,27.67
2023-07-18T21:07:29.214Z,27.93
2023-07-18T21:12:31.336Z,28.13
2023-07-18T21:17:33.336Z,28.54
2023-07-18T21:22:35.250Z,28.86
2023-07-18T21:27:37.178Z,28.90
2023-07-18T21:32:39.741Z,28.97
2023-07-18T21:37:42.020Z,29.06
2023-07-18T21:42:44.023Z,29.45
2023-07-18T21:47:46.294Z,29.84
2023-07-18T21:52:48.145Z,30.40
2023-07-18T21:57:50.044Z,30.64
2023-07-18T22:02:52.027Z,30.66
2023-07-18T22:07:53.991Z,30.88
2023-07-18T22:12:55.813Z,30.94
2023-07-18T22:18:09.037Z,31.17
2023-07-18T22:23:18.205Z,31.36
2023-07-18T22:28:20.298Z,31.49
2023-07-18T22:33:22.111Z,31.48
2023-07-18T22:38:23.931Z,31.80
2023-07-18T22:43:25.784Z,32.05
2023-07-18T22:48:27.826Z,32.32
2023-07-18T22:53:29.667Z,32.55
2023-07-18T22:58:31.495Z,32.47
2023-07-18T23:03:34.624Z,32.79
2023-07-18T23:08:36.579Z,32.92
2023-07-18T23:13:38.433Z,33.03
2023-07-18T23:18:40.272Z,33.34
2023-07-18T23:23:42.091Z,33.40
2023-07-18T23:28:43.956Z,33.53
2023-07-18T23:33:45.797Z,33.76
2023-07-18T23:38:47.730Z,34.33
2023-07-18T23:43:49.544Z,34.34
2023-07-18T23:48:51.413Z,34.76
2023-07-18T23:53:53.512Z,34.89
2023-07-18T23:58:55.526Z,35.09
